Monetta, South Carolina
Current Conditions -  °F | °C
As of 9:15 PM on Thursday 20 Nov 2014 (Local Time) from KAIK Reporting Station
Clear Clear  
Wind Chill: 44°   Ceiling: Unl
Heat Index: 46°   Visibility: 10mi
Dew Point: 34°   Wind: 5mph
Humidity: 62%   Direction: 210°SSW
Pressure: 30.24"   Gusts: NA
Location:  33.85°N, 81.61°W
Report Text: KAIK 210215Z AUTO 21004KT 10SM CLR 08/01 A3024 RMK AO2 PNO
Loading
Personal Weather Stations






























Interactive Weather Map New forecast layout! Learn more

10-Day Weather Forecast

Advertisements
Track Severe Weather on mobile